sensor_id;sensor_type;location;lat;lon;timestamp;P1;durP1;ratioP1;P2;durP2;ratioP2
49366;SDS011;35245;52.026;8.540;2023-03-14T00:02:25;5.50;;;1.70;;
49366;SDS011;35245;52.026;8.540;2023-03-14T00:04:53;6.30;;;1.98;;
49366;SDS011;35245;52.026;8.540;2023-03-14T00:07:21;4.90;;;1.98;;
49366;SDS011;35245;52.026;8.540;2023-03-14T00:09:49;4.25;;;1.73;;
49366;SDS011;35245;52.026;8.540;2023-03-14T00:12:18;3.08;;;1.33;;
49366;SDS011;35245;52.026;8.540;2023-03-14T00:14:44;6.25;;;1.60;;
49366;SDS011;35245;52.026;8.540;2023-03-14T00:17:11;4.72;;;1.60;;
49366;SDS011;35245;52.026;8.540;2023-03-14T00:19:38;5.15;;;1.70;;
49366;SDS011;35245;52.026;8.540;2023-03-14T00:22:06;5.45;;;1.50;;
49366;SDS011;35245;52.026;8.540;2023-03-14T00:24:33;5.28;;;1.60;;
49366;SDS011;35245;52.026;8.540;2023-03-14T00:27:00;3.92;;;1.52;;
49366;SDS011;35245;52.026;8.540;2023-03-14T00:29:28;6.10;;;1.90;;
49366;SDS011;35245;52.026;8.540;2023-03-14T00:31:55;5.70;;;1.83;;
49366;SDS011;35245;52.026;8.540;2023-03-14T00:34:22;5.15;;;1.50;;
49366;SDS011;35245;52.026;8.540;2023-03-14T00:36:49;5.40;;;1.63;;
49366;SDS011;35245;52.026;8.540;2023-03-14T00:39:16;4.65;;;1.33;;
49366;SDS011;35245;52.026;8.540;2023-03-14T00:41:42;3.13;;;1.40;;
49366;SDS011;35245;52.026;8.540;2023-03-14T00:44:09;6.68;;;1.50;;
49366;SDS011;35245;52.026;8.540;2023-03-14T00:46:38;4.78;;;1.50;;
49366;SDS011;35245;52.026;8.540;2023-03-14T00:49:05;4.03;;;1.80;;
49366;SDS011;35245;52.026;8.540;2023-03-14T00:51:32;4.25;;;1.65;;
49366;SDS011;35245;52.026;8.540;2023-03-14T00:53:59;5.97;;;1.50;;
49366;SDS011;35245;52.026;8.540;2023-03-14T00:56:26;3.72;;;1.50;;
49366;SDS011;35245;52.026;8.540;2023-03-14T00:58:53;6.15;;;1.70;;
49366;SDS011;35245;52.026;8.540;2023-03-14T01:01:21;7.15;;;1.75;;
49366;SDS011;35245;52.026;8.540;2023-03-14T01:03:51;3.88;;;1.60;;
49366;SDS011;35245;52.026;8.540;2023-03-14T01:06:19;5.53;;;1.50;;
49366;SDS011;35245;52.026;8.540;2023-03-14T01:08:47;4.75;;;1.90;;
49366;SDS011;35245;52.026;8.540;2023-03-14T01:11:15;6.57;;;1.30;;
49366;SDS011;35245;52.026;8.540;2023-03-14T01:13:43;8.15;;;1.58;;
49366;SDS011;35245;52.026;8.540;2023-03-14T01:16:11;6.63;;;1.90;;
49366;SDS011;35245;52.026;8.540;2023-03-14T01:18:39;5.07;;;1.45;;
49366;SDS011;35245;52.026;8.540;2023-03-14T01:21:11;8.80;;;1.90;;
49366;SDS011;35245;52.026;8.540;2023-03-14T01:23:39;4.20;;;1.60;;
49366;SDS011;35245;52.026;8.540;2023-03-14T01:26:08;6.15;;;1.52;;
49366;SDS011;35245;52.026;8.540;2023-03-14T01:28:35;5.65;;;1.63;;
49366;SDS011;35245;52.026;8.540;2023-03-14T01:31:02;8.02;;;1.45;;
49366;SDS011;35245;52.026;8.540;2023-03-14T01:33:29;8.00;;;1.75;;
49366;SDS011;35245;52.026;8.540;2023-03-14T01:35:56;5.15;;;1.42;;
49366;SDS011;35245;52.026;8.540;2023-03-14T01:38:25;6.60;;;1.58;;
49366;SDS011;35245;52.026;8.540;2023-03-14T01:40:52;5.88;;;1.73;;
49366;SDS011;35245;52.026;8.540;2023-03-14T01:43:19;5.45;;;1.58;;
49366;SDS011;35245;52.026;8.540;2023-03-14T01:48:59;3.20;;;1.50;;
49366;SDS011;35245;52.026;8.540;2023-03-14T01:51:30;4.30;;;1.40;;
49366;SDS011;35245;52.026;8.540;2023-03-14T01:54:06;4.72;;;1.48;;
49366;SDS011;35245;52.026;8.540;2023-03-14T01:56:36;5.80;;;1.63;;
49366;SDS011;35245;52.026;8.540;2023-03-14T01:59:04;10.73;;;2.40;;
49366;SDS011;35245;52.026;8.540;2023-03-14T02:01:33;6.30;;;1.90;;
49366;SDS011;35245;52.026;8.540;2023-03-14T02:04:01;12.73;;;2.55;;
49366;SDS011;35245;52.026;8.540;2023-03-14T02:06:32;4.70;;;1.55;;
49366;SDS011;35245;52.026;8.540;2023-03-14T02:09:11;8.18;;;1.58;;
49366;SDS011;35245;52.026;8.540;2023-03-14T02:11:38;6.47;;;1.45;;
49366;SDS011;35245;52.026;8.540;2023-03-14T02:14:06;6.70;;;1.40;;
49366;SDS011;35245;52.026;8.540;2023-03-14T02:16:34;5.50;;;1.45;;
49366;SDS011;35245;52.026;8.540;2023-03-14T02:19:01;7.65;;;2.28;;
49366;SDS011;35245;52.026;8.540;2023-03-14T02:21:32;8.43;;;1.80;;
49366;SDS011;35245;52.026;8.540;2023-03-14T02:24:06;5.47;;;1.40;;
49366;SDS011;35245;52.026;8.540;2023-03-14T02:26:38;7.43;;;1.80;;
49366;SDS011;35245;52.026;8.540;2023-03-14T02:29:08;8.80;;;1.83;;
49366;SDS011;35245;52.026;8.540;2023-03-14T02:31:35;14.18;;;2.88;;
49366;SDS011;35245;52.026;8.540;2023-03-14T02:34:02;8.10;;;2.30;;
49366;SDS011;35245;52.026;8.540;2023-03-14T02:36:30;10.25;;;2.63;;
49366;SDS011;35245;52.026;8.540;2023-03-14T02:38:58;9.95;;;1.85;;
49366;SDS011;35245;52.026;8.540;2023-03-14T02:41:30;2.63;;;0.95;;
49366;SDS011;35245;52.026;8.540;2023-03-14T02:43:57;6.75;;;1.75;;
49366;SDS011;35245;52.026;8.540;2023-03-14T02:46:26;11.35;;;1.70;;
49366;SDS011;35245;52.026;8.540;2023-03-14T02:48:54;3.90;;;1.13;;
49366;SDS011;35245;52.026;8.540;2023-03-14T02:51:24;6.70;;;1.42;;
49366;SDS011;35245;52.026;8.540;2023-03-14T02:53:52;3.25;;;1.00;;
49366;SDS011;35245;52.026;8.540;2023-03-14T02:56:19;4.32;;;1.38;;
49366;SDS011;35245;52.026;8.540;2023-03-14T02:58:46;5.70;;;1.25;;
49366;SDS011;35245;52.026;8.540;2023-03-14T03:01:13;5.22;;;1.50;;
49366;SDS011;35245;52.026;8.540;2023-03-14T03:03:41;5.55;;;1.60;;
49366;SDS011;35245;52.026;8.540;2023-03-14T03:06:08;6.60;;;2.42;;
49366;SDS011;35245;52.026;8.540;2023-03-14T03:08:35;7.38;;;1.60;;
49366;SDS011;35245;52.026;8.540;2023-03-14T03:11:02;6.20;;;2.08;;
49366;SDS011;35245;52.026;8.540;2023-03-14T03:13:29;5.38;;;1.50;;
49366;SDS011;35245;52.026;8.540;2023-03-14T03:15:56;6.45;;;0.95;;
49366;SDS011;35245;52.026;8.540;2023-03-14T03:18:23;3.78;;;1.00;;
49366;SDS011;35245;52.026;8.540;2023-03-14T03:20:51;7.28;;;1.20;;
49366;SDS011;35245;52.026;8.540;2023-03-14T03:23:18;11.15;;;1.42;;
49366;SDS011;35245;52.026;8.540;2023-03-14T03:25:47;5.07;;;1.05;;
49366;SDS011;35245;52.026;8.540;2023-03-14T03:28:15;6.10;;;1.13;;
49366;SDS011;35245;52.026;8.540;2023-03-14T03:30:42;6.68;;;1.23;;
49366;SDS011;35245;52.026;8.540;2023-03-14T03:33:09;3.40;;;0.80;;
49366;SDS011;35245;52.026;8.540;2023-03-14T03:35:41;5.10;;;0.90;;
49366;SDS011;35245;52.026;8.540;2023-03-14T03:38:10;2.25;;;0.63;;
49366;SDS011;35245;52.026;8.540;2023-03-14T03:40:37;4.45;;;1.05;;
49366;SDS011;35245;52.026;8.540;2023-03-14T03:43:04;1.10;;;0.50;;
49366;SDS011;35245;52.026;8.540;2023-03-14T03:45:31;4.13;;;0.95;;
49366;SDS011;35245;52.026;8.540;2023-03-14T03:47:58;2.28;;;1.02;;
49366;SDS011;35245;52.026;8.540;2023-03-14T03:50:25;2.33;;;0.90;;
49366;SDS011;35245;52.026;8.540;2023-03-14T03:52:52;3.55;;;1.17;;
49366;SDS011;35245;52.026;8.540;2023-03-14T03:55:21;3.70;;;1.02;;
49366;SDS011;35245;52.026;8.540;2023-03-14T03:57:48;5.10;;;1.30;;
49366;SDS011;35245;52.026;8.540;2023-03-14T04:00:15;7.05;;;1.15;;
49366;SDS011;35245;52.026;8.540;2023-03-14T04:02:42;5.65;;;0.85;;
49366;SDS011;35245;52.026;8.540;2023-03-14T04:05:09;6.97;;;1.23;;
49366;SDS011;35245;52.026;8.540;2023-03-14T04:07:36;5.95;;;1.33;;
49366;SDS011;35245;52.026;8.540;2023-03-14T04:10:04;4.80;;;1.63;;
49366;SDS011;35245;52.026;8.540;2023-03-14T04:12:32;8.65;;;1.88;;
49366;SDS011;35245;52.026;8.540;2023-03-14T04:14:59;10.00;;;2.05;;
49366;SDS011;35245;52.026;8.540;2023-03-14T04:17:26;5.82;;;1.90;;
49366;SDS011;35245;52.026;8.540;2023-03-14T04:19:53;5.15;;;2.20;;
49366;SDS011;35245;52.026;8.540;2023-03-14T04:22:20;9.68;;;2.30;;
49366;SDS011;35245;52.026;8.540;2023-03-14T04:24:47;8.80;;;2.60;;
49366;SDS011;35245;52.026;8.540;2023-03-14T04:27:14;10.43;;;2.83;;
49366;SDS011;35245;52.026;8.540;2023-03-14T04:29:42;10.15;;;2.38;;
49366;SDS011;35245;52.026;8.540;2023-03-14T04:32:09;5.78;;;2.28;;
49366;SDS011;35245;52.026;8.540;2023-03-14T04:34:36;11.25;;;2.75;;
49366;SDS011;35245;52.026;8.540;2023-03-14T04:37:03;12.10;;;3.75;;
49366;SDS011;35245;52.026;8.540;2023-03-14T04:39:30;12.45;;;2.85;;
49366;SDS011;35245;52.026;8.540;2023-03-14T04:41:57;5.32;;;2.33;;
49366;SDS011;35245;52.026;8.540;2023-03-14T04:44:24;11.02;;;3.13;;
49366;SDS011;35245;52.026;8.540;2023-03-14T04:46:52;8.02;;;3.22;;
49366;SDS011;35245;52.026;8.540;2023-03-14T04:49:19;5.47;;;1.85;;
49366;SDS011;35245;52.026;8.540;2023-03-14T04:51:46;9.07;;;2.15;;
49366;SDS011;35245;52.026;8.540;2023-03-14T04:54:13;7.50;;;2.08;;
49366;SDS011;35245;52.026;8.540;2023-03-14T04:56:40;8.02;;;1.90;;
49366;SDS011;35245;52.026;8.540;2023-03-14T04:59:07;9.18;;;2.13;;
49366;SDS011;35245;52.026;8.540;2023-03-14T05:01:34;8.13;;;2.50;;
49366;SDS011;35245;52.026;8.540;2023-03-14T05:04:02;6.85;;;2.30;;
49366;SDS011;35245;52.026;8.540;2023-03-14T05:06:29;8.27;;;2.42;;
49366;SDS011;35245;52.026;8.540;2023-03-14T05:08:56;9.38;;;2.03;;
49366;SDS011;35245;52.026;8.540;2023-03-14T05:11:23;7.53;;;1.40;;
49366;SDS011;35245;52.026;8.540;2023-03-14T05:13:50;11.18;;;2.15;;
49366;SDS011;35245;52.026;8.540;2023-03-14T05:16:17;7.65;;;1.90;;
49366;SDS011;35245;52.026;8.540;2023-03-14T05:18:44;6.75;;;1.38;;
49366;SDS011;35245;52.026;8.540;2023-03-14T05:21:12;4.75;;;1.25;;
49366;SDS011;35245;52.026;8.540;2023-03-14T05:23:39;6.78;;;1.52;;
49366;SDS011;35245;52.026;8.540;2023-03-14T05:26:06;7.13;;;1.60;;
49366;SDS011;35245;52.026;8.540;2023-03-14T05:28:33;15.07;;;2.83;;
49366;SDS011;35245;52.026;8.540;2023-03-14T05:31:00;5.68;;;1.58;;
49366;SDS011;35245;52.026;8.540;2023-03-14T05:33:26;8.35;;;1.70;;
49366;SDS011;35245;52.026;8.540;2023-03-14T05:35:53;8.02;;;1.63;;
49366;SDS011;35245;52.026;8.540;2023-03-14T05:38:22;5.50;;;1.48;;
49366;SDS011;35245;52.026;8.540;2023-03-14T05:40:48;9.68;;;1.55;;
49366;SDS011;35245;52.026;8.540;2023-03-14T05:43:15;7.70;;;1.60;;
49366;SDS011;35245;52.026;8.540;2023-03-14T05:45:42;5.32;;;1.30;;
49366;SDS011;35245;52.026;8.540;2023-03-14T05:48:09;6.00;;;1.60;;
49366;SDS011;35245;52.026;8.540;2023-03-14T05:50:36;5.93;;;1.30;;
49366;SDS011;35245;52.026;8.540;2023-03-14T05:53:03;7.50;;;1.55;;
49366;SDS011;35245;52.026;8.540;2023-03-14T05:55:31;4.05;;;1.23;;
49366;SDS011;35245;52.026;8.540;2023-03-14T05:57:58;5.28;;;1.17;;
49366;SDS011;35245;52.026;8.540;2023-03-14T06:00:25;7.47;;;1.48;;
49366;SDS011;35245;52.026;8.540;2023-03-14T06:02:52;5.00;;;1.25;;
49366;SDS011;35245;52.026;8.540;2023-03-14T06:05:19;3.75;;;1.50;;
49366;SDS011;35245;52.026;8.540;2023-03-14T06:07:46;4.40;;;2.00;;
49366;SDS011;35245;52.026;8.540;2023-03-14T06:10:13;7.78;;;2.28;;
49366;SDS011;35245;52.026;8.540;2023-03-14T06:12:41;5.95;;;2.35;;
49366;SDS011;35245;52.026;8.540;2023-03-14T06:15:08;5.35;;;2.50;;
49366;SDS011;35245;52.026;8.540;2023-03-14T06:17:36;5.40;;;2.40;;
49366;SDS011;35245;52.026;8.540;2023-03-14T06:20:03;3.15;;;2.13;;
49366;SDS011;35245;52.026;8.540;2023-03-14T06:22:30;7.57;;;2.88;;
49366;SDS011;35245;52.026;8.540;2023-03-14T06:24:57;3.70;;;2.13;;
49366;SDS011;35245;52.026;8.540;2023-03-14T06:27:24;6.65;;;2.80;;
49366;SDS011;35245;52.026;8.540;2023-03-14T06:29:52;4.10;;;1.65;;
49366;SDS011;35245;52.026;8.540;2023-03-14T06:32:19;4.90;;;1.45;;
49366;SDS011;35245;52.026;8.540;2023-03-14T06:34:46;7.45;;;3.10;;
49366;SDS011;35245;52.026;8.540;2023-03-14T06:37:13;10.65;;;2.80;;
49366;SDS011;35245;52.026;8.540;2023-03-14T06:39:40;10.13;;;3.95;;
49366;SDS011;35245;52.026;8.540;2023-03-14T06:42:09;2.90;;;1.02;;
49366;SDS011;35245;52.026;8.540;2023-03-14T06:44:36;4.22;;;1.30;;
49366;SDS011;35245;52.026;8.540;2023-03-14T06:47:04;6.88;;;2.15;;
49366;SDS011;35245;52.026;8.540;2023-03-14T06:49:31;8.00;;;3.08;;
49366;SDS011;35245;52.026;8.540;2023-03-14T06:51:58;8.18;;;3.30;;
49366;SDS011;35245;52.026;8.540;2023-03-14T06:54:25;10.73;;;4.28;;
49366;SDS011;35245;52.026;8.540;2023-03-14T06:56:51;10.75;;;3.05;;
49366;SDS011;35245;52.026;8.540;2023-03-14T06:59:18;22.17;;;7.63;;
49366;SDS011;35245;52.026;8.540;2023-03-14T07:01:45;5.03;;;1.67;;
49366;SDS011;35245;52.026;8.540;2023-03-14T07:04:14;13.60;;;5.53;;
49366;SDS011;35245;52.026;8.540;2023-03-14T07:06:41;9.90;;;4.15;;
49366;SDS011;35245;52.026;8.540;2023-03-14T07:09:09;7.03;;;2.47;;
49366;SDS011;35245;52.026;8.540;2023-03-14T07:11:36;3.38;;;0.95;;
49366;SDS011;35245;52.026;8.540;2023-03-14T07:14:03;5.85;;;1.65;;
49366;SDS011;35245;52.026;8.540;2023-03-14T07:16:30;7.57;;;1.63;;
49366;SDS011;35245;52.026;8.540;2023-03-14T07:18:58;4.95;;;2.17;;
49366;SDS011;35245;52.026;8.540;2023-03-14T07:21:26;3.28;;;0.98;;
49366;SDS011;35245;52.026;8.540;2023-03-14T07:23:53;2.67;;;1.15;;
49366;SDS011;35245;52.026;8.540;2023-03-14T07:26:20;2.58;;;1.20;;
49366;SDS011;35245;52.026;8.540;2023-03-14T07:28:47;5.15;;;1.70;;
49366;SDS011;35245;52.026;8.540;2023-03-14T07:31:14;2.65;;;1.60;;
49366;SDS011;35245;52.026;8.540;2023-03-14T07:33:41;3.30;;;1.23;;
49366;SDS011;35245;52.026;8.540;2023-03-14T07:36:08;8.50;;;2.10;;
49366;SDS011;35245;52.026;8.540;2023-03-14T07:38:36;3.63;;;1.70;;
49366;SDS011;35245;52.026;8.540;2023-03-14T07:41:04;5.32;;;2.15;;
49366;SDS011;35245;52.026;8.540;2023-03-14T07:43:32;4.88;;;1.90;;
49366;SDS011;35245;52.026;8.540;2023-03-14T07:45:59;3.90;;;1.65;;
49366;SDS011;35245;52.026;8.540;2023-03-14T07:48:26;4.40;;;2.08;;
49366;SDS011;35245;52.026;8.540;2023-03-14T07:50:53;6.97;;;3.30;;
49366;SDS011;35245;52.026;8.540;2023-03-14T07:53:21;8.30;;;4.13;;
49366;SDS011;35245;52.026;8.540;2023-03-14T07:55:51;6.65;;;3.33;;
49366;SDS011;35245;52.026;8.540;2023-03-14T07:58:19;5.05;;;2.08;;
49366;SDS011;35245;52.026;8.540;2023-03-14T08:00:47;4.25;;;2.10;;
49366;SDS011;35245;52.026;8.540;2023-03-14T08:03:14;6.38;;;3.50;;
49366;SDS011;35245;52.026;8.540;2023-03-14T08:05:41;3.22;;;2.33;;
49366;SDS011;35245;52.026;8.540;2023-03-14T08:08:08;6.22;;;2.05;;
49366;SDS011;35245;52.026;8.540;2023-03-14T08:10:35;5.03;;;1.85;;
49366;SDS011;35245;52.026;8.540;2023-03-14T08:13:04;6.65;;;2.53;;
49366;SDS011;35245;52.026;8.540;2023-03-14T08:15:31;6.25;;;3.60;;
49366;SDS011;35245;52.026;8.540;2023-03-14T08:17:58;4.97;;;2.65;;
49366;SDS011;35245;52.026;8.540;2023-03-14T08:20:26;7.75;;;3.75;;
49366;SDS011;35245;52.026;8.540;2023-03-14T08:22:55;7.70;;;3.85;;
49366;SDS011;35245;52.026;8.540;2023-03-14T08:25:23;19.27;;;9.13;;
49366;SDS011;35245;52.026;8.540;2023-03-14T08:27:50;10.93;;;5.13;;
49366;SDS011;35245;52.026;8.540;2023-03-14T08:30:19;11.63;;;4.88;;
49366;SDS011;35245;52.026;8.540;2023-03-14T08:32:46;5.03;;;2.70;;
49366;SDS011;35245;52.026;8.540;2023-03-14T08:35:14;11.45;;;5.30;;
49366;SDS011;35245;52.026;8.540;2023-03-14T08:37:41;3.65;;;2.13;;
49366;SDS011;35245;52.026;8.540;2023-03-14T08:40:08;7.00;;;3.55;;
49366;SDS011;35245;52.026;8.540;2023-03-14T08:42:36;8.30;;;3.80;;
49366;SDS011;35245;52.026;8.540;2023-03-14T08:45:04;4.78;;;3.10;;
49366;SDS011;35245;52.026;8.540;2023-03-14T08:47:33;5.97;;;4.35;;
49366;SDS011;35245;52.026;8.540;2023-03-14T08:50:00;7.93;;;4.78;;
49366;SDS011;35245;52.026;8.540;2023-03-14T08:52:28;7.78;;;3.60;;
49366;SDS011;35245;52.026;8.540;2023-03-14T08:54:56;15.10;;;9.20;;
49366;SDS011;35245;52.026;8.540;2023-03-14T08:57:23;6.43;;;3.58;;
49366;SDS011;35245;52.026;8.540;2023-03-14T08:59:52;12.63;;;7.05;;
49366;SDS011;35245;52.026;8.540;2023-03-14T09:02:20;9.30;;;4.53;;
49366;SDS011;35245;52.026;8.540;2023-03-14T09:04:48;9.20;;;4.63;;
49366;SDS011;35245;52.026;8.540;2023-03-14T09:07:16;7.95;;;5.05;;
49366;SDS011;35245;52.026;8.540;2023-03-14T09:09:43;4.70;;;2.95;;
49366;SDS011;35245;52.026;8.540;2023-03-14T09:12:10;5.38;;;3.55;;
49366;SDS011;35245;52.026;8.540;2023-03-14T09:14:37;9.15;;;5.25;;
49366;SDS011;35245;52.026;8.540;2023-03-14T09:17:04;3.08;;;2.40;;
49366;SDS011;35245;52.026;8.540;2023-03-14T09:19:31;4.75;;;3.08;;
49366;SDS011;35245;52.026;8.540;2023-03-14T09:21:59;10.93;;;5.43;;
49366;SDS011;35245;52.026;8.540;2023-03-14T09:24:26;7.75;;;3.60;;
49366;SDS011;35245;52.026;8.540;2023-03-14T09:26:54;10.73;;;6.63;;
49366;SDS011;35245;52.026;8.540;2023-03-14T09:29:21;9.85;;;6.32;;
49366;SDS011;35245;52.026;8.540;2023-03-14T09:31:48;4.60;;;2.50;;
49366;SDS011;35245;52.026;8.540;2023-03-14T09:34:14;4.95;;;2.60;;
49366;SDS011;35245;52.026;8.540;2023-03-14T09:36:41;5.40;;;3.03;;
49366;SDS011;35245;52.026;8.540;2023-03-14T09:39:10;14.75;;;9.77;;
49366;SDS011;35245;52.026;8.540;2023-03-14T09:41:38;9.95;;;5.95;;
49366;SDS011;35245;52.026;8.540;2023-03-14T09:44:06;8.38;;;5.25;;
49366;SDS011;35245;52.026;8.540;2023-03-14T09:46:37;20.30;;;7.80;;
49366;SDS011;35245;52.026;8.540;2023-03-14T09:49:08;6.75;;;3.30;;
49366;SDS011;35245;52.026;8.540;2023-03-14T09:51:37;6.38;;;4.65;;
49366;SDS011;35245;52.026;8.540;2023-03-14T09:54:04;4.65;;;2.53;;
49366;SDS011;35245;52.026;8.540;2023-03-14T09:56:33;4.07;;;2.97;;
49366;SDS011;35245;52.026;8.540;2023-03-14T09:59:01;3.58;;;2.30;;
49366;SDS011;35245;52.026;8.540;2023-03-14T10:01:31;3.97;;;2.08;;
49366;SDS011;35245;52.026;8.540;2023-03-14T10:04:00;3.00;;;2.30;;
49366;SDS011;35245;52.026;8.540;2023-03-14T10:06:29;3.85;;;2.15;;
49366;SDS011;35245;52.026;8.540;2023-03-14T10:08:57;3.95;;;2.72;;
49366;SDS011;35245;52.026;8.540;2023-03-14T10:11:24;3.17;;;2.47;;
49366;SDS011;35245;52.026;8.540;2023-03-14T10:14:03;4.40;;;3.50;;
49366;SDS011;35245;52.026;8.540;2023-03-14T10:19:03;4.88;;;3.28;;
49366;SDS011;35245;52.026;8.540;2023-03-14T10:21:35;3.80;;;3.08;;
49366;SDS011;35245;52.026;8.540;2023-03-14T10:24:15;7.18;;;3.30;;
49366;SDS011;35245;52.026;8.540;2023-03-14T10:26:47;5.07;;;3.35;;
49366;SDS011;35245;52.026;8.540;2023-03-14T10:29:16;4.50;;;2.90;;
49366;SDS011;35245;52.026;8.540;2023-03-14T10:31:47;9.63;;;4.32;;
49366;SDS011;35245;52.026;8.540;2023-03-14T10:34:17;6.38;;;4.10;;
49366;SDS011;35245;52.026;8.540;2023-03-14T10:36:51;9.60;;;4.47;;
49366;SDS011;35245;52.026;8.540;2023-03-14T10:39:27;13.63;;;8.23;;
49366;SDS011;35245;52.026;8.540;2023-03-14T10:42:01;3.83;;;2.28;;
49366;SDS011;35245;52.026;8.540;2023-03-14T10:44:32;3.30;;;2.00;;
49366;SDS011;35245;52.026;8.540;2023-03-14T10:47:01;6.80;;;3.38;;
49366;SDS011;35245;52.026;8.540;2023-03-14T10:49:29;1.90;;;1.05;;
49366;SDS011;35245;52.026;8.540;2023-03-14T10:52:12;3.15;;;2.10;;
49366;SDS011;35245;52.026;8.540;2023-03-14T10:54:46;4.50;;;1.83;;
49366;SDS011;35245;52.026;8.540;2023-03-14T10:57:14;5.00;;;2.25;;
49366;SDS011;35245;52.026;8.540;2023-03-14T10:59:43;2.33;;;1.65;;
49366;SDS011;35245;52.026;8.540;2023-03-14T11:02:15;2.58;;;1.02;;
49366;SDS011;35245;52.026;8.540;2023-03-14T11:04:55;5.28;;;0.80;;
49366;SDS011;35245;52.026;8.540;2023-03-14T11:07:29;2.17;;;0.68;;
49366;SDS011;35245;52.026;8.540;2023-03-14T11:10:03;2.45;;;1.00;;
49366;SDS011;35245;52.026;8.540;2023-03-14T11:12:41;3.92;;;1.52;;
49366;SDS011;35245;52.026;8.540;2023-03-14T11:15:14;2.92;;;0.77;;
49366;SDS011;35245;52.026;8.540;2023-03-14T11:17:46;2.90;;;0.70;;
49366;SDS011;35245;52.026;8.540;2023-03-14T11:20:23;1.00;;;0.30;;
49366;SDS011;35245;52.026;8.540;2023-03-14T11:22:58;4.30;;;0.60;;
49366;SDS011;35245;52.026;8.540;2023-03-14T11:25:29;1.08;;;0.80;;
49366;SDS011;35245;52.026;8.540;2023-03-14T11:28:00;0.70;;;0.47;;
49366;SDS011;35245;52.026;8.540;2023-03-14T11:30:35;1.58;;;0.90;;
49366;SDS011;35245;52.026;8.540;2023-03-14T11:33:07;1.13;;;0.75;;
49366;SDS011;35245;52.026;8.540;2023-03-14T11:35:41;2.75;;;1.00;;
49366;SDS011;35245;52.026;8.540;2023-03-14T11:38:13;2.65;;;1.33;;
49366;SDS011;35245;52.026;8.540;2023-03-14T11:40:46;1.48;;;0.63;;
49366;SDS011;35245;52.026;8.540;2023-03-14T11:43:15;1.27;;;0.60;;
49366;SDS011;35245;52.026;8.540;2023-03-14T11:45:48;2.20;;;1.42;;
49366;SDS011;35245;52.026;8.540;2023-03-14T11:48:19;0.52;;;0.38;;
49366;SDS011;35245;52.026;8.540;2023-03-14T11:50:50;1.52;;;0.57;;
49366;SDS011;35245;52.026;8.540;2023-03-14T11:53:19;2.65;;;1.17;;
49366;SDS011;35245;52.026;8.540;2023-03-14T11:55:49;1.80;;;0.75;;
49366;SDS011;35245;52.026;8.540;2023-03-14T11:58:17;2.50;;;0.98;;
49366;SDS011;35245;52.026;8.540;2023-03-14T12:00:48;4.15;;;2.35;;
49366;SDS011;35245;52.026;8.540;2023-03-14T12:03:19;2.30;;;0.60;;
49366;SDS011;35245;52.026;8.540;2023-03-14T12:05:55;2.13;;;1.00;;
49366;SDS011;35245;52.026;8.540;2023-03-14T12:08:33;6.30;;;1.23;;
49366;SDS011;35245;52.026;8.540;2023-03-14T12:11:18;6.68;;;1.80;;
49366;SDS011;35245;52.026;8.540;2023-03-14T12:13:48;6.35;;;1.70;;
49366;SDS011;35245;52.026;8.540;2023-03-14T12:19:13;5.50;;;2.13;;
49366;SDS011;35245;52.026;8.540;2023-03-14T12:21:59;5.80;;;1.52;;
49366;SDS011;35245;52.026;8.540;2023-03-14T12:24:45;6.22;;;1.10;;
49366;SDS011;35245;52.026;8.540;2023-03-14T12:30:15;7.45;;;1.45;;
49366;SDS011;35245;52.026;8.540;2023-03-14T12:36:10;8.60;;;1.83;;
49366;SDS011;35245;52.026;8.540;2023-03-14T12:39:01;6.97;;;1.25;;
49366;SDS011;35245;52.026;8.540;2023-03-14T12:41:38;5.22;;;1.40;;
49366;SDS011;35245;52.026;8.540;2023-03-14T12:50:13;14.35;;;2.03;;
49366;SDS011;35245;52.026;8.540;2023-03-14T12:52:49;10.15;;;1.90;;
49366;SDS011;35245;52.026;8.540;2023-03-14T12:55:24;11.75;;;2.00;;
49366;SDS011;35245;52.026;8.540;2023-03-14T12:57:55;8.23;;;1.63;;
49366;SDS011;35245;52.026;8.540;2023-03-14T13:00:29;6.55;;;2.05;;
49366;SDS011;35245;52.026;8.540;2023-03-14T13:03:00;11.43;;;2.42;;
49366;SDS011;35245;52.026;8.540;2023-03-14T13:05:29;6.07;;;1.98;;
49366;SDS011;35245;52.026;8.540;2023-03-14T13:08:05;7.30;;;1.83;;
49366;SDS011;35245;52.026;8.540;2023-03-14T13:10:43;8.35;;;1.98;;
49366;SDS011;35245;52.026;8.540;2023-03-14T13:13:15;8.85;;;1.58;;
49366;SDS011;35245;52.026;8.540;2023-03-14T13:15:46;11.98;;;2.38;;
49366;SDS011;35245;52.026;8.540;2023-03-14T13:18:16;12.02;;;2.55;;
49366;SDS011;35245;52.026;8.540;2023-03-14T13:20:45;5.57;;;1.73;;
49366;SDS011;35245;52.026;8.540;2023-03-14T13:23:21;9.35;;;1.65;;
49366;SDS011;35245;52.026;8.540;2023-03-14T13:25:50;11.45;;;2.13;;
49366;SDS011;35245;52.026;8.540;2023-03-14T13:28:17;16.70;;;2.75;;
49366;SDS011;35245;52.026;8.540;2023-03-14T13:30:45;21.90;;;3.65;;
49366;SDS011;35245;52.026;8.540;2023-03-14T13:33:13;15.15;;;2.65;;
49366;SDS011;35245;52.026;8.540;2023-03-14T13:35:41;19.38;;;2.95;;
49366;SDS011;35245;52.026;8.540;2023-03-14T13:38:15;22.23;;;3.88;;
49366;SDS011;35245;52.026;8.540;2023-03-14T13:40:45;18.90;;;5.10;;
49366;SDS011;35245;52.026;8.540;2023-03-14T13:43:14;15.15;;;3.30;;
49366;SDS011;35245;52.026;8.540;2023-03-14T13:45:47;18.38;;;3.97;;
49366;SDS011;35245;52.026;8.540;2023-03-14T13:48:16;21.27;;;3.45;;
49366;SDS011;35245;52.026;8.540;2023-03-14T13:50:44;18.35;;;3.28;;
49366;SDS011;35245;52.026;8.540;2023-03-14T13:53:12;21.75;;;4.00;;
49366;SDS011;35245;52.026;8.540;2023-03-14T13:55:39;22.75;;;4.25;;
49366;SDS011;35245;52.026;8.540;2023-03-14T13:58:11;21.25;;;3.83;;
49366;SDS011;35245;52.026;8.540;2023-03-14T14:00:53;20.40;;;3.75;;
49366;SDS011;35245;52.026;8.540;2023-03-14T14:03:25;16.80;;;3.20;;
49366;SDS011;35245;52.026;8.540;2023-03-14T14:05:54;14.20;;;3.05;;
49366;SDS011;35245;52.026;8.540;2023-03-14T14:08:22;15.55;;;3.58;;
49366;SDS011;35245;52.026;8.540;2023-03-14T14:10:49;20.33;;;3.65;;
49366;SDS011;35245;52.026;8.540;2023-03-14T14:13:17;19.17;;;3.55;;
49366;SDS011;35245;52.026;8.540;2023-03-14T14:15:47;17.85;;;3.30;;
49366;SDS011;35245;52.026;8.540;2023-03-14T14:18:16;15.20;;;3.13;;
49366;SDS011;35245;52.026;8.540;2023-03-14T14:20:46;16.35;;;3.22;;
49366;SDS011;35245;52.026;8.540;2023-03-14T14:23:14;14.82;;;2.85;;
49366;SDS011;35245;52.026;8.540;2023-03-14T14:25:42;15.00;;;2.60;;
49366;SDS011;35245;52.026;8.540;2023-03-14T14:28:21;15.30;;;3.13;;
49366;SDS011;35245;52.026;8.540;2023-03-14T14:33:28;15.40;;;3.90;;
49366;SDS011;35245;52.026;8.540;2023-03-14T14:35:57;17.05;;;3.03;;
49366;SDS011;35245;52.026;8.540;2023-03-14T14:38:25;17.95;;;3.50;;
49366;SDS011;35245;52.026;8.540;2023-03-14T14:40:53;16.83;;;2.65;;
49366;SDS011;35245;52.026;8.540;2023-03-14T14:43:23;15.25;;;3.60;;
49366;SDS011;35245;52.026;8.540;2023-03-14T14:45:53;17.38;;;3.50;;
49366;SDS011;35245;52.026;8.540;2023-03-14T14:48:22;14.13;;;3.10;;
49366;SDS011;35245;52.026;8.540;2023-03-14T14:50:54;14.40;;;2.53;;
49366;SDS011;35245;52.026;8.540;2023-03-14T14:53:24;16.17;;;2.42;;
49366;SDS011;35245;52.026;8.540;2023-03-14T14:55:55;14.50;;;2.78;;
49366;SDS011;35245;52.026;8.540;2023-03-14T14:58:26;11.35;;;2.53;;
49366;SDS011;35245;52.026;8.540;2023-03-14T15:00:56;13.25;;;2.92;;
49366;SDS011;35245;52.026;8.540;2023-03-14T15:03:25;11.88;;;2.15;;
49366;SDS011;35245;52.026;8.540;2023-03-14T15:05:54;15.02;;;2.38;;
49366;SDS011;35245;52.026;8.540;2023-03-14T15:08:21;11.88;;;2.13;;
49366;SDS011;35245;52.026;8.540;2023-03-14T15:10:48;7.85;;;2.00;;
49366;SDS011;35245;52.026;8.540;2023-03-14T15:13:15;8.50;;;2.67;;
49366;SDS011;35245;52.026;8.540;2023-03-14T15:15:43;12.60;;;2.08;;
49366;SDS011;35245;52.026;8.540;2023-03-14T15:18:12;11.35;;;2.45;;
49366;SDS011;35245;52.026;8.540;2023-03-14T15:20:41;8.57;;;2.05;;